createdAt,value
2018-10-16T04:00:18.223Z,73.00
2018-10-16T04:02:46.616Z,72.80
2018-10-16T04:05:14.793Z,72.70
2018-10-16T04:07:42.963Z,72.80
2018-10-16T04:10:11.141Z,72.90
2018-10-16T04:12:39.456Z,73.20
2018-10-16T04:15:09.044Z,73.20
2018-10-16T04:17:37.753Z,72.90
2018-10-16T04:20:05.938Z,72.60
2018-10-16T04:22:34.183Z,72.40
2018-10-16T04:25:02.278Z,72.60
2018-10-16T04:27:30.450Z,72.40
2018-10-16T04:29:58.627Z,72.30
2018-10-16T04:32:26.776Z,72.10
2018-10-16T04:34:54.944Z,72.10
2018-10-16T04:37:23.099Z,72.20
2018-10-16T04:39:51.266Z,72.00
2018-10-16T04:42:20.334Z,72.20
2018-10-16T04:44:48.485Z,72.10
2018-10-16T04:47:16.637Z,72.30
2018-10-16T04:49:44.808Z,72.30
2018-10-16T04:52:12.967Z,72.60
2018-10-16T04:54:41.232Z,73.20
2018-10-16T04:57:09.397Z,74.30
2018-10-16T04:59:37.537Z,74.20
2018-10-16T05:02:05.771Z,73.60
2018-10-16T05:04:34.004Z,73.60
2018-10-16T05:07:02.167Z,73.80
2018-10-16T05:09:30.325Z,73.30
2018-10-16T05:11:58.488Z,73.70
2018-10-16T05:14:26.638Z,73.50
2018-10-16T05:17:00.349Z,73.30
2018-10-16T05:19:31.775Z,73.20
2018-10-16T05:21:59.939Z,73.50
2018-10-16T05:24:28.157Z,73.20
2018-10-16T05:26:56.332Z,72.90
2018-10-16T05:29:24.514Z,72.60
2018-10-16T05:31:52.684Z,72.50
2018-10-16T05:34:20.849Z,72.40
2018-10-16T05:36:49.023Z,72.40
2018-10-16T05:39:17.256Z,72.30
2018-10-16T05:41:45.344Z,72.20
2018-10-16T05:44:13.511Z,72.20
2018-10-16T05:46:41.697Z,72.10
2018-10-16T05:49:09.845Z,72.10
2018-10-16T05:51:38.037Z,72.30
2018-10-16T05:54:06.198Z,72.40
2018-10-16T05:56:34.468Z,72.50
2018-10-16T05:59:02.640Z,72.30
2018-10-16T06:01:30.847Z,72.30
2018-10-16T06:03:59.044Z,72.40
2018-10-16T06:06:27.231Z,71.80
2018-10-16T06:08:55.404Z,71.90
2018-10-16T06:11:23.631Z,72.40
2018-10-16T06:13:51.797Z,71.60
2018-10-16T06:16:19.973Z,71.70
2018-10-16T06:18:48.143Z,71.80
2018-10-16T06:21:16.344Z,71.80
2018-10-16T06:23:44.556Z,71.30
2018-10-16T06:26:12.739Z,70.80
2018-10-16T06:28:40.908Z,70.60
2018-10-16T06:31:09.081Z,70.50
2018-10-16T06:33:37.243Z,70.30
2018-10-16T06:36:05.564Z,70.20
2018-10-16T06:38:33.716Z,70.20
2018-10-16T06:41:02.048Z,70.50
2018-10-16T06:43:30.090Z,70.70
2018-10-16T06:45:58.265Z,70.40
2018-10-16T06:48:26.691Z,70.20
2018-10-16T06:50:55.329Z,69.70
2018-10-16T06:53:23.557Z,69.50
2018-10-16T06:55:51.769Z,69.10
2018-10-16T06:58:19.925Z,69.00
2018-10-16T07:00:48.100Z,69.10
2018-10-16T07:03:16.263Z,68.90
2018-10-16T07:05:44.455Z,68.70
2018-10-16T07:08:12.608Z,68.60
2018-10-16T07:10:40.784Z,68.70
2018-10-16T07:13:08.931Z,69.30
2018-10-16T07:15:37.138Z,67.90
2018-10-16T07:18:05.695Z,68.60
2018-10-16T07:20:33.874Z,67.80
2018-10-16T07:23:02.076Z,67.40
2018-10-16T07:25:30.261Z,67.00
2018-10-16T07:27:58.428Z,67.00
2018-10-16T07:30:26.605Z,67.20
2018-10-16T07:32:55.125Z,67.00
2018-10-16T07:35:23.300Z,66.60
2018-10-16T07:37:51.518Z,66.60
2018-10-16T07:40:19.668Z,66.60
2018-10-16T07:42:47.827Z,66.40
2018-10-16T07:45:15.965Z,66.20
2018-10-16T07:47:44.108Z,66.40
2018-10-16T07:50:12.586Z,65.30
2018-10-16T07:52:40.765Z,65.10
2018-10-16T07:55:11.017Z,65.00
2018-10-16T07:57:39.289Z,64.40
2018-10-16T08:00:08.928Z,64.40
2018-10-16T08:02:37.614Z,63.90
2018-10-16T08:05:06.101Z,64.20
2018-10-16T08:07:34.345Z,64.10
2018-10-16T08:10:02.520Z,63.70
2018-10-16T08:12:30.696Z,63.70
2018-10-16T08:14:58.858Z,63.10
2018-10-16T08:17:27.051Z,63.10
2018-10-16T08:19:55.208Z,63.40
2018-10-16T08:22:23.400Z,64.00
2018-10-16T08:24:51.593Z,63.80
2018-10-16T08:27:19.778Z,64.00
2018-10-16T08:29:47.945Z,63.20
2018-10-16T08:32:16.138Z,62.90
2018-10-16T08:34:44.329Z,62.40
2018-10-16T08:37:17.504Z,62.60
2018-10-16T08:39:45.669Z,62.50
2018-10-16T08:43:39.593Z,62.30
2018-10-16T08:46:19.426Z,61.10
2018-10-16T08:48:59.585Z,60.30
2018-10-16T08:51:44.647Z,60.40
2018-10-16T08:54:12.824Z,59.90
2018-10-16T08:56:41.020Z,59.60
2018-10-16T08:59:09.177Z,59.80
2018-10-16T09:01:37.359Z,59.60
2018-10-16T09:04:05.969Z,59.30
2018-10-16T09:06:34.323Z,59.50
2018-10-16T09:09:03.444Z,59.30
2018-10-16T09:11:31.619Z,59.10
2018-10-16T09:13:59.811Z,59.10
2018-10-16T09:16:27.981Z,58.90
2018-10-16T09:18:56.143Z,59.00
2018-10-16T09:21:24.321Z,58.70
2018-10-16T09:23:52.493Z,58.60
2018-10-16T09:26:20.675Z,58.40
2018-10-16T09:28:48.866Z,58.20
2018-10-16T09:31:17.039Z,58.10
2018-10-16T09:33:45.205Z,58.00
2018-10-16T09:36:13.369Z,57.80
2018-10-16T09:38:41.542Z,57.60
2018-10-16T09:41:09.778Z,57.60
2018-10-16T09:43:37.936Z,57.20
2018-10-16T09:46:06.293Z,57.00
2018-10-16T09:48:34.512Z,56.80
2018-10-16T09:51:02.694Z,57.00
2018-10-16T09:53:30.864Z,56.60
2018-10-16T09:55:59.208Z,56.50
2018-10-16T09:58:27.373Z,55.80
2018-10-16T10:01:00.879Z,55.80
2018-10-16T10:03:29.069Z,55.50
2018-10-16T10:05:57.264Z,55.10
2018-10-16T10:08:25.445Z,54.90
2018-10-16T10:10:53.672Z,55.00
2018-10-16T10:13:21.793Z,54.40
2018-10-16T10:15:49.998Z,54.30
2018-10-16T10:18:18.174Z,54.10
2018-10-16T10:20:46.420Z,54.00
2018-10-16T10:23:14.674Z,53.80
2018-10-16T10:25:42.863Z,53.40
2018-10-16T10:28:11.078Z,53.00
2018-10-16T10:30:39.253Z,53.30
2018-10-16T10:33:07.445Z,53.20
2018-10-16T10:35:35.688Z,52.40
2018-10-16T10:38:03.840Z,52.60
2018-10-16T10:40:32.016Z,53.00
2018-10-16T10:43:00.265Z,52.30
2018-10-16T10:45:28.469Z,52.10
2018-10-16T10:47:56.653Z,52.00
2018-10-16T10:50:25.047Z,52.00
2018-10-16T10:52:53.041Z,51.80
2018-10-16T10:55:21.205Z,51.90
2018-10-16T10:57:49.388Z,51.40
2018-10-16T11:00:17.568Z,51.30
2018-10-16T11:02:47.057Z,51.30
2018-10-16T11:05:15.216Z,51.30
2018-10-16T11:07:43.386Z,51.60
2018-10-16T11:10:12.905Z,51.40
2018-10-16T11:12:41.806Z,51.40
2018-10-16T11:15:10.032Z,51.00
2018-10-16T11:17:38.762Z,50.70
2018-10-16T11:20:08.361Z,50.70
2018-10-16T11:22:36.565Z,50.80
2018-10-16T11:25:05.873Z,50.50
2018-10-16T11:27:34.081Z,50.30
2018-10-16T11:30:02.279Z,50.30
2018-10-16T11:32:30.496Z,50.00
2018-10-16T11:34:58.658Z,49.90
2018-10-16T11:37:26.846Z,49.80
2018-10-16T11:39:55.016Z,49.90
2018-10-16T11:42:23.196Z,50.30
2018-10-16T11:44:51.411Z,49.40
2018-10-16T11:47:19.604Z,49.50
2018-10-16T11:49:47.756Z,49.50
2018-10-16T11:52:20.719Z,49.70
2018-10-16T11:54:52.052Z,49.40
2018-10-16T11:57:20.270Z,49.40
2018-10-16T11:59:48.442Z,49.30
2018-10-16T12:02:16.712Z,49.70
2018-10-16T12:04:44.785Z,49.70
2018-10-16T12:07:13.026Z,49.70
2018-10-16T12:09:41.149Z,50.00
2018-10-16T12:12:09.332Z,50.10
2018-10-16T12:14:37.522Z,49.60
2018-10-16T12:18:09.393Z,49.80
2018-10-16T12:20:42.032Z,49.60
2018-10-16T12:23:10.209Z,49.40
2018-10-16T12:25:38.417Z,49.60
2018-10-16T12:28:06.581Z,49.90
2018-10-16T12:30:34.790Z,50.40
2018-10-16T12:33:03.027Z,49.80
2018-10-16T12:35:31.113Z,50.00
2018-10-16T12:37:59.284Z,49.70
2018-10-16T12:40:27.457Z,49.60
2018-10-16T12:42:55.681Z,49.70
2018-10-16T12:45:23.814Z,49.20
2018-10-16T12:47:52.063Z,49.20
2018-10-16T12:50:20.279Z,49.20
2018-10-16T12:52:48.405Z,49.10
2018-10-16T12:55:16.613Z,49.00
2018-10-16T12:57:44.831Z,49.10
2018-10-16T13:00:13.105Z,49.20
2018-10-16T13:02:41.215Z,49.10
2018-10-16T13:05:09.495Z,49.30
2018-10-16T13:07:38.740Z,49.40
2018-10-16T13:10:09.628Z,49.60
2018-10-16T13:12:37.826Z,49.50
2018-10-16T13:15:07.681Z,49.30
2018-10-16T13:17:35.993Z,49.50
2018-10-16T13:20:04.740Z,49.30
2018-10-16T13:22:32.952Z,49.30
2018-10-16T13:25:01.142Z,49.30
2018-10-16T13:27:29.313Z,49.20
2018-10-16T13:29:57.600Z,49.30
2018-10-16T13:32:25.792Z,49.10
2018-10-16T13:34:54.022Z,49.10
2018-10-16T13:37:22.208Z,49.50
2018-10-16T13:39:50.398Z,49.50
2018-10-16T13:42:18.618Z,49.50
2018-10-16T13:44:46.757Z,49.80
2018-10-16T13:47:14.973Z,49.60
2018-10-16T13:49:43.149Z,49.60
2018-10-16T13:52:11.426Z,49.60
2018-10-16T13:54:39.514Z,50.10
2018-10-16T13:57:07.660Z,50.20
2018-10-16T13:59:35.805Z,49.70
2018-10-16T14:02:04.260Z,49.50
2018-10-16T14:04:32.424Z,49.60
2018-10-16T14:07:00.580Z,49.60
2018-10-16T14:09:28.765Z,49.60
2018-10-16T14:11:56.917Z,50.10
2018-10-16T14:14:25.090Z,50.20
2018-10-16T14:16:53.381Z,50.30
2018-10-16T14:19:21.435Z,50.60
2018-10-16T14:21:49.662Z,50.40
2018-10-16T14:24:17.834Z,50.40
2018-10-16T14:26:45.999Z,50.50
2018-10-16T14:29:14.150Z,50.50
2018-10-16T14:31:42.327Z,51.00
2018-10-16T14:34:10.522Z,51.20
2018-10-16T14:36:38.657Z,51.40
2018-10-16T14:39:08.561Z,51.50
2018-10-16T14:41:36.991Z,51.70
2018-10-16T14:44:05.586Z,51.80
2018-10-16T14:46:33.729Z,51.90
2018-10-16T14:49:01.890Z,52.00
2018-10-16T14:51:30.048Z,52.00
2018-10-16T14:53:58.254Z,52.40
2018-10-16T14:56:26.414Z,52.60
2018-10-16T14:58:54.589Z,53.00
2018-10-16T15:01:22.801Z,52.90
2018-10-16T15:03:51.031Z,53.00
2018-10-16T15:06:19.184Z,53.00
2018-10-16T15:08:47.413Z,53.20
2018-10-16T15:11:15.611Z,53.90
2018-10-16T15:13:43.787Z,53.30
2018-10-16T15:16:12.140Z,53.30
2018-10-16T15:18:40.265Z,53.50
2018-10-16T15:21:08.774Z,53.90
2018-10-16T15:23:37.015Z,53.80
2018-10-16T15:26:05.800Z,53.90
2018-10-16T15:28:33.957Z,54.60
2018-10-16T15:31:02.221Z,54.20
2018-10-16T15:33:30.571Z,54.50
2018-10-16T15:35:59.266Z,54.80
2018-10-16T15:38:27.481Z,54.80
2018-10-16T15:40:55.908Z,54.70
2018-10-16T15:43:24.093Z,55.00
2018-10-16T15:45:52.298Z,55.00
2018-10-16T15:48:20.481Z,55.60
2018-10-16T15:50:48.691Z,55.90
2018-10-16T15:53:16.936Z,55.70
2018-10-16T15:55:45.093Z,56.30
2018-10-16T15:58:13.341Z,57.00
2018-10-16T16:00:43.308Z,57.70
2018-10-16T16:03:11.537Z,58.40
2018-10-16T16:05:39.708Z,59.40
2018-10-16T16:08:07.959Z,60.20
2018-10-16T16:10:36.130Z,61.20
2018-10-16T16:13:09.560Z,62.40
2018-10-16T16:15:38.106Z,63.30
2018-10-16T16:18:06.390Z,63.90
2018-10-16T16:20:34.454Z,64.90
2018-10-16T16:23:02.590Z,65.30
2018-10-16T16:25:30.712Z,65.70
2018-10-16T16:27:58.981Z,66.60
2018-10-16T16:30:27.118Z,68.10
2018-10-16T16:32:55.292Z,69.10
2018-10-16T16:35:31.819Z,68.90
2018-10-16T16:38:00.134Z,69.90
2018-10-16T16:40:28.295Z,70.30
2018-10-16T16:42:56.533Z,71.40
2018-10-16T16:45:24.769Z,72.00
2018-10-16T16:47:53.000Z,72.50
2018-10-16T16:50:21.285Z,73.00
2018-10-16T16:52:49.567Z,73.30
2018-10-16T16:55:17.773Z,74.10
2018-10-16T16:57:45.981Z,75.40
2018-10-16T17:00:14.916Z,76.30
2018-10-16T17:02:44.443Z,77.40
2018-10-16T17:05:13.040Z,76.60
2018-10-16T17:07:41.881Z,76.90
2018-10-16T17:10:10.207Z,77.80
2018-10-16T17:12:39.297Z,78.00
2018-10-16T17:15:09.465Z,78.80
2018-10-16T17:17:37.785Z,78.50
2018-10-16T17:20:06.365Z,79.60
2018-10-16T17:22:34.837Z,79.20
2018-10-16T17:25:03.127Z,79.20
2018-10-16T17:27:31.333Z,80.20
2018-10-16T17:29:59.519Z,81.00
2018-10-16T17:32:27.709Z,81.40
2018-10-16T17:34:56.004Z,81.80
2018-10-16T17:37:24.227Z,82.00
2018-10-16T17:39:52.377Z,82.70
2018-10-16T17:42:20.554Z,83.20
2018-10-16T17:44:48.682Z,83.50
2018-10-16T17:47:16.818Z,84.30
2018-10-16T17:49:44.984Z,84.40
2018-10-16T17:52:13.120Z,84.50
2018-10-16T17:54:41.329Z,85.40
2018-10-16T17:57:09.576Z,85.40
2018-10-16T17:59:37.710Z,85.60
2018-10-16T18:02:05.840Z,85.70
2018-10-16T18:04:34.730Z,86.60
2018-10-16T18:07:02.929Z,86.90
2018-10-16T18:09:31.071Z,87.60
2018-10-16T18:11:59.297Z,87.90
2018-10-16T18:14:27.777Z,88.10
2018-10-16T18:16:56.149Z,87.90
2018-10-16T18:19:24.916Z,88.00
2018-10-16T18:21:54.042Z,88.20
2018-10-16T18:24:23.211Z,88.60
2018-10-16T18:26:53.020Z,88.80
2018-10-16T18:29:22.560Z,89.20
2018-10-16T18:31:52.796Z,89.80
2018-10-16T18:34:23.486Z,90.10
2018-10-16T18:36:52.726Z,90.20
2018-10-16T18:39:21.003Z,90.10
2018-10-16T18:41:49.199Z,90.10
2018-10-16T18:44:17.466Z,90.00
2018-10-16T18:46:45.642Z,90.10
2018-10-16T18:49:13.833Z,90.10
2018-10-16T18:51:42.120Z,90.30
2018-10-16T18:54:10.322Z,90.30
2018-10-16T18:56:38.469Z,90.30
2018-10-16T18:59:06.684Z,90.30
2018-10-16T19:01:34.831Z,90.40
2018-10-16T19:04:03.117Z,90.50
2018-10-16T19:06:31.293Z,90.60
2018-10-16T19:08:59.539Z,90.70
2018-10-16T19:11:27.644Z,90.70
2018-10-16T19:13:55.806Z,90.80
2018-10-16T19:16:23.945Z,90.80
2018-10-16T19:18:52.164Z,90.90
2018-10-16T19:21:20.355Z,91.10
2018-10-16T19:23:48.501Z,91.10
2018-10-16T19:26:16.653Z,91.20
2018-10-16T19:28:44.823Z,91.30
2018-10-16T19:31:13.421Z,91.40
2018-10-16T19:33:41.557Z,91.40
2018-10-16T19:36:09.783Z,91.80
2018-10-16T19:38:37.960Z,92.00
2018-10-16T19:41:06.160Z,92.00
2018-10-16T19:43:34.375Z,92.00
2018-10-16T19:46:02.713Z,92.00
2018-10-16T19:48:30.849Z,92.10
2018-10-16T19:50:59.067Z,92.20
2018-10-16T19:53:27.244Z,92.40
2018-10-16T19:55:55.389Z,92.30
2018-10-16T19:58:23.539Z,92.00
2018-10-16T20:00:51.688Z,92.10
2018-10-16T20:03:19.917Z,92.00
2018-10-16T20:05:48.064Z,91.90
2018-10-16T20:08:16.332Z,91.90
2018-10-16T20:10:44.499Z,91.90
2018-10-16T20:13:12.726Z,91.90
2018-10-16T20:15:40.966Z,92.00
2018-10-16T20:18:09.209Z,91.90
2018-10-16T20:20:37.383Z,91.90
2018-10-16T20:23:05.524Z,91.90
2018-10-16T20:25:34.176Z,91.90
2018-10-16T20:28:02.435Z,91.90
2018-10-16T20:30:30.574Z,92.10
2018-10-16T20:32:58.732Z,92.10
2018-10-16T20:35:26.932Z,92.20
2018-10-16T20:37:55.082Z,92.40
2018-10-16T20:40:23.985Z,92.60
2018-10-16T20:42:52.214Z,93.00
2018-10-16T20:45:20.357Z,92.80
2018-10-16T20:47:48.495Z,93.00
2018-10-16T20:50:16.654Z,93.10
2018-10-16T20:52:45.075Z,93.30
2018-10-16T20:55:13.673Z,93.50
2018-10-16T20:57:41.942Z,93.60
